sensor_id;sensor_type;location;lat;lon;timestamp;temperature;humidity
32139;DHT22;18644;48.700;9.210;2022-10-16T00:00:21;19.00;63.70
32139;DHT22;18644;48.700;9.210;2022-10-16T00:02:47;18.90;63.70
32139;DHT22;18644;48.700;9.210;2022-10-16T00:05:14;18.90;63.70
32139;DHT22;18644;48.700;9.210;2022-10-16T00:07:41;18.90;63.80
32139;DHT22;18644;48.700;9.210;2022-10-16T00:10:09;18.90;63.80
32139;DHT22;18644;48.700;9.210;2022-10-16T00:12:36;18.90;63.80
32139;DHT22;18644;48.700;9.210;2022-10-16T00:15:03;18.80;63.90
32139;DHT22;18644;48.700;9.210;2022-10-16T00:17:31;18.80;64.00
32139;DHT22;18644;48.700;9.210;2022-10-16T00:19:57;18.80;64.80
32139;DHT22;18644;48.700;9.210;2022-10-16T00:22:24;18.80;64.00
32139;DHT22;18644;48.700;9.210;2022-10-16T00:24:51;18.70;64.10
32139;DHT22;18644;48.700;9.210;2022-10-16T00:27:19;18.70;64.10
32139;DHT22;18644;48.700;9.210;2022-10-16T00:29:49;18.70;64.00
32139;DHT22;18644;48.700;9.210;2022-10-16T00:32:15;18.70;63.90
32139;DHT22;18644;48.700;9.210;2022-10-16T00:34:42;18.60;63.70
32139;DHT22;18644;48.700;9.210;2022-10-16T00:37:09;18.60;63.70
32139;DHT22;18644;48.700;9.210;2022-10-16T00:39:36;18.60;63.60
32139;DHT22;18644;48.700;9.210;2022-10-16T00:42:03;18.50;63.50
32139;DHT22;18644;48.700;9.210;2022-10-16T00:44:44;18.50;63.50
32139;DHT22;18644;48.700;9.210;2022-10-16T00:47:17;18.40;63.50
32139;DHT22;18644;48.700;9.210;2022-10-16T00:49:46;18.40;63.50
32139;DHT22;18644;48.700;9.210;2022-10-16T00:52:14;18.40;63.60
32139;DHT22;18644;48.700;9.210;2022-10-16T00:54:41;18.30;63.60
32139;DHT22;18644;48.700;9.210;2022-10-16T00:57:08;18.30;63.70
32139;DHT22;18644;48.700;9.210;2022-10-16T00:59:35;18.20;63.70
32139;DHT22;18644;48.700;9.210;2022-10-16T01:02:05;18.20;63.80
32139;DHT22;18644;48.700;9.210;2022-10-16T01:04:34;18.20;63.80
32139;DHT22;18644;48.700;9.210;2022-10-16T01:07:09;18.10;63.80
32139;DHT22;18644;48.700;9.210;2022-10-16T01:09:41;18.10;63.90
32139;DHT22;18644;48.700;9.210;2022-10-16T01:12:14;18.10;64.00
32139;DHT22;18644;48.700;9.210;2022-10-16T01:14:44;18.10;64.30
32139;DHT22;18644;48.700;9.210;2022-10-16T01:17:15;18.00;64.40
32139;DHT22;18644;48.700;9.210;2022-10-16T01:20:00;18.00;64.60
32139;DHT22;18644;48.700;9.210;2022-10-16T01:22:33;18.00;64.60
32139;DHT22;18644;48.700;9.210;2022-10-16T01:25:04;18.00;64.70
32139;DHT22;18644;48.700;9.210;2022-10-16T01:27:37;18.00;64.70
32139;DHT22;18644;48.700;9.210;2022-10-16T01:30:08;18.00;64.60
32139;DHT22;18644;48.700;9.210;2022-10-16T01:32:40;17.90;64.50
32139;DHT22;18644;48.700;9.210;2022-10-16T01:35:09;17.90;64.50
32139;DHT22;18644;48.700;9.210;2022-10-16T01:37:40;17.90;64.50
32139;DHT22;18644;48.700;9.210;2022-10-16T01:40:11;17.90;64.40
32139;DHT22;18644;48.700;9.210;2022-10-16T01:42:41;17.90;64.30
32139;DHT22;18644;48.700;9.210;2022-10-16T01:45:09;17.80;64.20
32139;DHT22;18644;48.700;9.210;2022-10-16T01:47:38;17.80;64.30
32139;DHT22;18644;48.700;9.210;2022-10-16T01:50:06;17.80;64.30
32139;DHT22;18644;48.700;9.210;2022-10-16T01:52:34;17.80;64.30
32139;DHT22;18644;48.700;9.210;2022-10-16T01:55:02;17.70;64.30
32139;DHT22;18644;48.700;9.210;2022-10-16T01:57:30;17.70;64.40
32139;DHT22;18644;48.700;9.210;2022-10-16T02:00:00;17.70;64.50
32139;DHT22;18644;48.700;9.210;2022-10-16T02:02:30;17.70;64.60
32139;DHT22;18644;48.700;9.210;2022-10-16T02:04:58;17.70;64.60
32139;DHT22;18644;48.700;9.210;2022-10-16T02:07:28;17.60;64.70
32139;DHT22;18644;48.700;9.210;2022-10-16T02:09:55;17.70;64.90
32139;DHT22;18644;48.700;9.210;2022-10-16T02:12:23;17.60;64.90
32139;DHT22;18644;48.700;9.210;2022-10-16T02:14:52;17.60;65.00
32139;DHT22;18644;48.700;9.210;2022-10-16T02:17:20;17.70;65.00
32139;DHT22;18644;48.700;9.210;2022-10-16T02:19:48;17.60;65.10
32139;DHT22;18644;48.700;9.210;2022-10-16T02:22:17;17.70;65.30
32139;DHT22;18644;48.700;9.210;2022-10-16T02:24:50;17.70;65.30
32139;DHT22;18644;48.700;9.210;2022-10-16T02:27:19;17.70;65.30
32139;DHT22;18644;48.700;9.210;2022-10-16T02:29:51;17.70;65.40
32139;DHT22;18644;48.700;9.210;2022-10-16T02:32:27;17.70;65.40
32139;DHT22;18644;48.700;9.210;2022-10-16T02:34:56;17.70;65.40
32139;DHT22;18644;48.700;9.210;2022-10-16T02:37:25;17.70;65.50
32139;DHT22;18644;48.700;9.210;2022-10-16T02:39:52;17.70;65.40
32139;DHT22;18644;48.700;9.210;2022-10-16T02:42:20;17.70;65.40
32139;DHT22;18644;48.700;9.210;2022-10-16T02:44:47;17.70;65.40
32139;DHT22;18644;48.700;9.210;2022-10-16T02:47:13;17.70;65.40
32139;DHT22;18644;48.700;9.210;2022-10-16T02:49:41;17.70;65.30
32139;DHT22;18644;48.700;9.210;2022-10-16T02:52:08;17.70;65.30
32139;DHT22;18644;48.700;9.210;2022-10-16T02:54:35;17.70;65.30
32139;DHT22;18644;48.700;9.210;2022-10-16T02:57:01;17.70;65.30
32139;DHT22;18644;48.700;9.210;2022-10-16T02:59:28;17.70;65.30
32139;DHT22;18644;48.700;9.210;2022-10-16T03:01:55;17.70;66.00
32139;DHT22;18644;48.700;9.210;2022-10-16T03:04:22;17.70;65.30
32139;DHT22;18644;48.700;9.210;2022-10-16T03:06:50;17.70;65.30
32139;DHT22;18644;48.700;9.210;2022-10-16T03:09:16;17.70;65.30
32139;DHT22;18644;48.700;9.210;2022-10-16T03:11:43;17.70;65.30
32139;DHT22;18644;48.700;9.210;2022-10-16T03:14:10;17.70;65.30
32139;DHT22;18644;48.700;9.210;2022-10-16T03:16:36;17.70;65.20
32139;DHT22;18644;48.700;9.210;2022-10-16T03:19:03;17.60;65.20
32139;DHT22;18644;48.700;9.210;2022-10-16T03:21:30;17.60;65.20
32139;DHT22;18644;48.700;9.210;2022-10-16T03:23:58;17.60;65.10
32139;DHT22;18644;48.700;9.210;2022-10-16T03:26:25;17.60;65.20
32139;DHT22;18644;48.700;9.210;2022-10-16T03:28:51;17.60;65.20
32139;DHT22;18644;48.700;9.210;2022-10-16T03:31:18;17.60;65.20
32139;DHT22;18644;48.700;9.210;2022-10-16T03:33:45;17.50;65.20
32139;DHT22;18644;48.700;9.210;2022-10-16T03:36:11;17.50;65.20
32139;DHT22;18644;48.700;9.210;2022-10-16T03:38:38;17.50;65.20
32139;DHT22;18644;48.700;9.210;2022-10-16T03:41:06;17.50;65.20
32139;DHT22;18644;48.700;9.210;2022-10-16T03:43:33;17.50;65.20
32139;DHT22;18644;48.700;9.210;2022-10-16T03:46:01;17.50;65.20
32139;DHT22;18644;48.700;9.210;2022-10-16T03:48:28;17.50;65.20
32139;DHT22;18644;48.700;9.210;2022-10-16T03:50:55;17.40;65.20
32139;DHT22;18644;48.700;9.210;2022-10-16T03:53:22;17.40;65.20
32139;DHT22;18644;48.700;9.210;2022-10-16T03:55:48;17.50;65.20
32139;DHT22;18644;48.700;9.210;2022-10-16T03:58:16;17.40;65.20
32139;DHT22;18644;48.700;9.210;2022-10-16T04:00:45;17.40;65.20
32139;DHT22;18644;48.700;9.210;2022-10-16T04:03:12;17.40;65.20
32139;DHT22;18644;48.700;9.210;2022-10-16T04:05:39;17.40;65.20
32139;DHT22;18644;48.700;9.210;2022-10-16T04:08:06;17.40;65.30
32139;DHT22;18644;48.700;9.210;2022-10-16T04:10:33;17.40;65.30
32139;DHT22;18644;48.700;9.210;2022-10-16T04:13:00;17.30;65.30
32139;DHT22;18644;48.700;9.210;2022-10-16T04:15:28;17.30;65.30
32139;DHT22;18644;48.700;9.210;2022-10-16T04:17:54;17.30;65.40
32139;DHT22;18644;48.700;9.210;2022-10-16T04:20:21;17.30;65.40
32139;DHT22;18644;48.700;9.210;2022-10-16T04:22:48;17.30;65.40
32139;DHT22;18644;48.700;9.210;2022-10-16T04:25:15;17.30;65.60
32139;DHT22;18644;48.700;9.210;2022-10-16T04:27:41;17.30;65.60
32139;DHT22;18644;48.700;9.210;2022-10-16T04:30:10;17.20;65.70
32139;DHT22;18644;48.700;9.210;2022-10-16T04:32:38;17.20;65.80
32139;DHT22;18644;48.700;9.210;2022-10-16T04:35:07;17.20;65.90
32139;DHT22;18644;48.700;9.210;2022-10-16T04:37:34;17.20;66.00
32139;DHT22;18644;48.700;9.210;2022-10-16T04:40:01;17.20;66.00
32139;DHT22;18644;48.700;9.210;2022-10-16T04:42:27;17.20;65.90
32139;DHT22;18644;48.700;9.210;2022-10-16T04:44:54;17.20;65.90
32139;DHT22;18644;48.700;9.210;2022-10-16T04:47:21;17.20;65.80
32139;DHT22;18644;48.700;9.210;2022-10-16T04:49:49;17.20;65.80
32139;DHT22;18644;48.700;9.210;2022-10-16T04:52:16;17.20;65.80
32139;DHT22;18644;48.700;9.210;2022-10-16T04:54:44;17.20;65.80
32139;DHT22;18644;48.700;9.210;2022-10-16T04:57:11;17.20;65.80
32139;DHT22;18644;48.700;9.210;2022-10-16T04:59:37;17.20;65.90
32139;DHT22;18644;48.700;9.210;2022-10-16T05:02:04;17.20;65.90
32139;DHT22;18644;48.700;9.210;2022-10-16T05:04:31;17.20;65.90
32139;DHT22;18644;48.700;9.210;2022-10-16T05:06:59;17.20;65.90
32139;DHT22;18644;48.700;9.210;2022-10-16T05:09:26;17.20;65.90
32139;DHT22;18644;48.700;9.210;2022-10-16T05:11:52;17.20;66.70
32139;DHT22;18644;48.700;9.210;2022-10-16T05:14:19;17.20;65.90
32139;DHT22;18644;48.700;9.210;2022-10-16T05:16:46;17.20;65.90
32139;DHT22;18644;48.700;9.210;2022-10-16T05:19:13;17.20;65.90
32139;DHT22;18644;48.700;9.210;2022-10-16T05:21:40;17.10;65.80
32139;DHT22;18644;48.700;9.210;2022-10-16T05:24:08;17.10;65.90
32139;DHT22;18644;48.700;9.210;2022-10-16T05:26:35;17.10;65.90
32139;DHT22;18644;48.700;9.210;2022-10-16T05:29:02;17.10;65.90
32139;DHT22;18644;48.700;9.210;2022-10-16T05:31:29;17.10;66.00
32139;DHT22;18644;48.700;9.210;2022-10-16T05:33:57;17.10;66.00
32139;DHT22;18644;48.700;9.210;2022-10-16T05:36:25;17.10;66.10
32139;DHT22;18644;48.700;9.210;2022-10-16T05:38:51;17.10;66.20
32139;DHT22;18644;48.700;9.210;2022-10-16T05:41:19;17.10;66.20
32139;DHT22;18644;48.700;9.210;2022-10-16T05:43:47;17.10;66.30
32139;DHT22;18644;48.700;9.210;2022-10-16T05:46:14;17.10;66.40
32139;DHT22;18644;48.700;9.210;2022-10-16T05:48:41;17.10;66.40
32139;DHT22;18644;48.700;9.210;2022-10-16T05:51:08;17.10;66.40
32139;DHT22;18644;48.700;9.210;2022-10-16T05:53:37;17.10;66.40
32139;DHT22;18644;48.700;9.210;2022-10-16T05:56:05;17.10;66.30
32139;DHT22;18644;48.700;9.210;2022-10-16T05:58:34;17.00;66.20
32139;DHT22;18644;48.700;9.210;2022-10-16T06:01:03;17.10;66.20
32139;DHT22;18644;48.700;9.210;2022-10-16T06:03:32;17.00;66.20
32139;DHT22;18644;48.700;9.210;2022-10-16T06:05:59;17.00;66.10
32139;DHT22;18644;48.700;9.210;2022-10-16T06:08:25;17.00;66.20
32139;DHT22;18644;48.700;9.210;2022-10-16T06:11:00;17.00;66.20
32139;DHT22;18644;48.700;9.210;2022-10-16T06:13:28;17.00;66.30
32139;DHT22;18644;48.700;9.210;2022-10-16T06:15:57;17.00;66.30
32139;DHT22;18644;48.700;9.210;2022-10-16T06:18:24;17.00;66.40
32139;DHT22;18644;48.700;9.210;2022-10-16T06:20:51;17.00;66.40
32139;DHT22;18644;48.700;9.210;2022-10-16T06:23:18;17.00;66.50
32139;DHT22;18644;48.700;9.210;2022-10-16T06:25:45;17.00;66.50
32139;DHT22;18644;48.700;9.210;2022-10-16T06:28:13;17.10;66.70
32139;DHT22;18644;48.700;9.210;2022-10-16T06:30:40;17.10;66.80
32139;DHT22;18644;48.700;9.210;2022-10-16T06:33:10;17.10;66.90
32139;DHT22;18644;48.700;9.210;2022-10-16T06:35:37;17.10;66.90
32139;DHT22;18644;48.700;9.210;2022-10-16T06:38:04;17.20;67.00
32139;DHT22;18644;48.700;9.210;2022-10-16T06:40:30;17.20;67.10
32139;DHT22;18644;48.700;9.210;2022-10-16T06:42:57;17.20;67.20
32139;DHT22;18644;48.700;9.210;2022-10-16T06:45:24;17.30;67.30
32139;DHT22;18644;48.700;9.210;2022-10-16T06:47:51;17.30;67.50
32139;DHT22;18644;48.700;9.210;2022-10-16T06:50:19;17.40;67.60
32139;DHT22;18644;48.700;9.210;2022-10-16T06:52:45;17.40;67.80
32139;DHT22;18644;48.700;9.210;2022-10-16T06:55:12;17.50;67.90
32139;DHT22;18644;48.700;9.210;2022-10-16T06:57:40;17.60;68.10
32139;DHT22;18644;48.700;9.210;2022-10-16T07:00:07;17.70;68.20
32139;DHT22;18644;48.700;9.210;2022-10-16T07:02:34;17.70;68.20
32139;DHT22;18644;48.700;9.210;2022-10-16T07:05:00;17.80;68.10
32139;DHT22;18644;48.700;9.210;2022-10-16T07:07:29;17.90;68.10
32139;DHT22;18644;48.700;9.210;2022-10-16T07:09:55;17.90;68.00
32139;DHT22;18644;48.700;9.210;2022-10-16T07:12:22;18.00;68.10
32139;DHT22;18644;48.700;9.210;2022-10-16T07:14:49;18.00;67.90
32139;DHT22;18644;48.700;9.210;2022-10-16T07:17:17;18.10;68.00
32139;DHT22;18644;48.700;9.210;2022-10-16T07:19:44;18.20;68.10
32139;DHT22;18644;48.700;9.210;2022-10-16T07:22:11;18.20;68.10
32139;DHT22;18644;48.700;9.210;2022-10-16T07:24:39;18.30;68.20
32139;DHT22;18644;48.700;9.210;2022-10-16T07:27:06;18.30;68.10
32139;DHT22;18644;48.700;9.210;2022-10-16T07:29:32;18.40;68.10
32139;DHT22;18644;48.700;9.210;2022-10-16T07:31:59;18.50;68.00
32139;DHT22;18644;48.700;9.210;2022-10-16T07:34:26;18.50;68.00
32139;DHT22;18644;48.700;9.210;2022-10-16T07:36:52;18.50;67.80
32139;DHT22;18644;48.700;9.210;2022-10-16T07:39:19;18.60;67.90
32139;DHT22;18644;48.700;9.210;2022-10-16T07:41:47;18.60;67.90
32139;DHT22;18644;48.700;9.210;2022-10-16T07:44:15;18.70;68.00
32139;DHT22;18644;48.700;9.210;2022-10-16T07:46:42;18.80;68.00
32139;DHT22;18644;48.700;9.210;2022-10-16T07:49:09;18.80;67.90
32139;DHT22;18644;48.700;9.210;2022-10-16T07:51:35;18.80;67.90
32139;DHT22;18644;48.700;9.210;2022-10-16T07:54:03;18.90;68.00
32139;DHT22;18644;48.700;9.210;2022-10-16T07:56:30;19.00;68.00
32139;DHT22;18644;48.700;9.210;2022-10-16T07:58:59;19.00;68.00
32139;DHT22;18644;48.700;9.210;2022-10-16T08:01:26;19.10;68.10
32139;DHT22;18644;48.700;9.210;2022-10-16T08:03:53;19.10;68.10
32139;DHT22;18644;48.700;9.210;2022-10-16T08:06:20;19.20;68.20
32139;DHT22;18644;48.700;9.210;2022-10-16T08:08:48;19.30;68.30
32139;DHT22;18644;48.700;9.210;2022-10-16T08:11:14;19.40;68.10
32139;DHT22;18644;48.700;9.210;2022-10-16T08:13:41;19.50;67.90
32139;DHT22;18644;48.700;9.210;2022-10-16T08:16:10;19.50;67.80
32139;DHT22;18644;48.700;9.210;2022-10-16T08:18:37;19.60;67.80
32139;DHT22;18644;48.700;9.210;2022-10-16T08:21:05;19.60;67.80
32139;DHT22;18644;48.700;9.210;2022-10-16T08:23:33;19.70;67.90
32139;DHT22;18644;48.700;9.210;2022-10-16T08:26:02;19.80;68.00
32139;DHT22;18644;48.700;9.210;2022-10-16T08:28:29;19.90;68.00
32139;DHT22;18644;48.700;9.210;2022-10-16T08:31:03;20.00;68.10
32139;DHT22;18644;48.700;9.210;2022-10-16T08:33:32;20.10;68.10
32139;DHT22;18644;48.700;9.210;2022-10-16T08:36:00;20.20;68.20
32139;DHT22;18644;48.700;9.210;2022-10-16T08:38:27;20.40;68.20
32139;DHT22;18644;48.700;9.210;2022-10-16T08:40:54;20.50;68.20
32139;DHT22;18644;48.700;9.210;2022-10-16T08:43:27;20.60;68.20
32139;DHT22;18644;48.700;9.210;2022-10-16T08:46:11;20.70;68.00
32139;DHT22;18644;48.700;9.210;2022-10-16T08:48:46;20.80;67.90
32139;DHT22;18644;48.700;9.210;2022-10-16T08:51:18;21.00;67.80
32139;DHT22;18644;48.700;9.210;2022-10-16T08:53:49;21.10;67.70
32139;DHT22;18644;48.700;9.210;2022-10-16T08:56:19;21.20;67.40
32139;DHT22;18644;48.700;9.210;2022-10-16T08:58:46;21.20;67.20
32139;DHT22;18644;48.700;9.210;2022-10-16T09:01:14;21.30;67.00
32139;DHT22;18644;48.700;9.210;2022-10-16T09:03:49;21.40;66.80
32139;DHT22;18644;48.700;9.210;2022-10-16T09:09:15;21.50;66.50
32139;DHT22;18644;48.700;9.210;2022-10-16T09:11:52;21.60;66.60
32139;DHT22;18644;48.700;9.210;2022-10-16T09:14:32;21.60;67.40
32139;DHT22;18644;48.700;9.210;2022-10-16T09:17:06;21.80;66.80
32139;DHT22;18644;48.700;9.210;2022-10-16T09:19:58;21.90;66.70
32139;DHT22;18644;48.700;9.210;2022-10-16T09:22:36;22.00;66.80
32139;DHT22;18644;48.700;9.210;2022-10-16T09:25:09;22.10;66.60
32139;DHT22;18644;48.700;9.210;2022-10-16T09:27:37;22.20;66.60
32139;DHT22;18644;48.700;9.210;2022-10-16T09:30:10;22.40;66.60
32139;DHT22;18644;48.700;9.210;2022-10-16T09:32:38;22.50;66.60
32139;DHT22;18644;48.700;9.210;2022-10-16T09:35:09;22.60;66.60
32139;DHT22;18644;48.700;9.210;2022-10-16T09:37:39;22.70;66.80
32139;DHT22;18644;48.700;9.210;2022-10-16T09:40:11;22.90;66.90
32139;DHT22;18644;48.700;9.210;2022-10-16T09:42:39;23.10;66.90
32139;DHT22;18644;48.700;9.210;2022-10-16T09:45:18;23.30;67.10
32139;DHT22;18644;48.700;9.210;2022-10-16T09:47:47;23.50;67.10
32139;DHT22;18644;48.700;9.210;2022-10-16T09:50:22;23.70;67.20
32139;DHT22;18644;48.700;9.210;2022-10-16T09:52:50;23.90;67.40
32139;DHT22;18644;48.700;9.210;2022-10-16T09:55:17;24.20;67.30
32139;DHT22;18644;48.700;9.210;2022-10-16T09:57:48;24.40;67.20
32139;DHT22;18644;48.700;9.210;2022-10-16T10:00:16;24.70;66.70
32139;DHT22;18644;48.700;9.210;2022-10-16T10:02:43;24.90;66.30
32139;DHT22;18644;48.700;9.210;2022-10-16T10:05:17;25.10;66.30
32139;DHT22;18644;48.700;9.210;2022-10-16T10:07:52;25.30;66.20
32139;DHT22;18644;48.700;9.210;2022-10-16T10:10:21;25.60;66.20
32139;DHT22;18644;48.700;9.210;2022-10-16T10:12:49;25.80;66.60
32139;DHT22;18644;48.700;9.210;2022-10-16T10:15:16;26.00;65.50
32139;DHT22;18644;48.700;9.210;2022-10-16T10:17:47;26.20;65.20
32139;DHT22;18644;48.700;9.210;2022-10-16T10:20:21;26.40;65.80
32139;DHT22;18644;48.700;9.210;2022-10-16T10:22:51;26.60;64.50
32139;DHT22;18644;48.700;9.210;2022-10-16T10:25:26;26.70;64.00
32139;DHT22;18644;48.700;9.210;2022-10-16T10:28:02;26.90;63.60
32139;DHT22;18644;48.700;9.210;2022-10-16T10:30:39;27.00;63.00
32139;DHT22;18644;48.700;9.210;2022-10-16T10:33:13;27.10;61.90
32139;DHT22;18644;48.700;9.210;2022-10-16T10:35:48;27.20;61.70
32139;DHT22;18644;48.700;9.210;2022-10-16T10:38:25;27.30;60.90
32139;DHT22;18644;48.700;9.210;2022-10-16T10:41:01;27.30;60.40
32139;DHT22;18644;48.700;9.210;2022-10-16T10:43:41;27.30;60.10
32139;DHT22;18644;48.700;9.210;2022-10-16T10:46:17;27.30;59.70
32139;DHT22;18644;48.700;9.210;2022-10-16T10:48:50;27.30;59.20
32139;DHT22;18644;48.700;9.210;2022-10-16T10:51:25;27.30;59.00
32139;DHT22;18644;48.700;9.210;2022-10-16T10:53:59;27.30;59.20
32139;DHT22;18644;48.700;9.210;2022-10-16T10:56:40;27.30;59.10
32139;DHT22;18644;48.700;9.210;2022-10-16T10:59:28;27.30;59.00
32139;DHT22;18644;48.700;9.210;2022-10-16T11:02:26;27.30;59.30
32139;DHT22;18644;48.700;9.210;2022-10-16T11:07:58;27.60;59.50
32139;DHT22;18644;48.700;9.210;2022-10-16T11:10:28;27.70;59.40
32139;DHT22;18644;48.700;9.210;2022-10-16T11:13:10;27.90;59.50
32139;DHT22;18644;48.700;9.210;2022-10-16T11:15:43;28.00;59.30
32139;DHT22;18644;48.700;9.210;2022-10-16T11:18:11;28.10;59.10
32139;DHT22;18644;48.700;9.210;2022-10-16T11:20:45;28.30;59.00
32139;DHT22;18644;48.700;9.210;2022-10-16T11:23:14;28.40;58.90
32139;DHT22;18644;48.700;9.210;2022-10-16T11:25:44;28.50;58.40
32139;DHT22;18644;48.700;9.210;2022-10-16T11:28:11;28.70;58.50
32139;DHT22;18644;48.700;9.210;2022-10-16T11:30:41;28.80;58.30
32139;DHT22;18644;48.700;9.210;2022-10-16T11:33:22;28.90;58.20
32139;DHT22;18644;48.700;9.210;2022-10-16T11:35:53;29.00;57.70
32139;DHT22;18644;48.700;9.210;2022-10-16T11:38:25;29.10;57.70
32139;DHT22;18644;48.700;9.210;2022-10-16T11:40:56;29.20;57.90
32139;DHT22;18644;48.700;9.210;2022-10-16T11:43:26;29.30;57.90
32139;DHT22;18644;48.700;9.210;2022-10-16T11:45:56;29.40;57.30
32139;DHT22;18644;48.700;9.210;2022-10-16T11:48:25;29.40;56.40
32139;DHT22;18644;48.700;9.210;2022-10-16T11:50:57;29.40;55.80
32139;DHT22;18644;48.700;9.210;2022-10-16T11:53:31;29.40;55.80
32139;DHT22;18644;48.700;9.210;2022-10-16T11:56:06;29.40;55.90
32139;DHT22;18644;48.700;9.210;2022-10-16T11:58:33;29.50;56.10
32139;DHT22;18644;48.700;9.210;2022-10-16T12:01:05;29.60;55.80
32139;DHT22;18644;48.700;9.210;2022-10-16T12:03:42;29.70;56.00
32139;DHT22;18644;48.700;9.210;2022-10-16T12:06:23;29.80;55.50
32139;DHT22;18644;48.700;9.210;2022-10-16T12:08:53;29.90;55.70
32139;DHT22;18644;48.700;9.210;2022-10-16T12:11:33;30.00;55.20
32139;DHT22;18644;48.700;9.210;2022-10-16T12:17:03;30.20;54.70
32139;DHT22;18644;48.700;9.210;2022-10-16T12:19:32;30.30;55.20
32139;DHT22;18644;48.700;9.210;2022-10-16T12:22:00;30.40;54.50
32139;DHT22;18644;48.700;9.210;2022-10-16T12:24:29;30.40;54.70
32139;DHT22;18644;48.700;9.210;2022-10-16T12:27:00;30.50;54.90
32139;DHT22;18644;48.700;9.210;2022-10-16T12:29:32;30.60;54.50
32139;DHT22;18644;48.700;9.210;2022-10-16T12:32:00;30.60;54.40
32139;DHT22;18644;48.700;9.210;2022-10-16T12:34:29;30.80;54.70
32139;DHT22;18644;48.700;9.210;2022-10-16T12:37:09;30.90;54.50
32139;DHT22;18644;48.700;9.210;2022-10-16T12:39:38;31.00;54.00
32139;DHT22;18644;48.700;9.210;2022-10-16T12:42:18;31.10;54.30
32139;DHT22;18644;48.700;9.210;2022-10-16T12:44:47;31.10;53.70
32139;DHT22;18644;48.700;9.210;2022-10-16T12:47:19;31.10;53.10
32139;DHT22;18644;48.700;9.210;2022-10-16T12:49:48;31.10;53.40
32139;DHT22;18644;48.700;9.210;2022-10-16T12:52:25;31.10;53.70
32139;DHT22;18644;48.700;9.210;2022-10-16T12:54:55;31.10;53.30
32139;DHT22;18644;48.700;9.210;2022-10-16T12:57:34;31.10;53.20
32139;DHT22;18644;48.700;9.210;2022-10-16T13:00:11;31.00;52.60
32139;DHT22;18644;48.700;9.210;2022-10-16T13:02:49;31.00;52.40
32139;DHT22;18644;48.700;9.210;2022-10-16T13:05:29;30.90;52.30
32139;DHT22;18644;48.700;9.210;2022-10-16T13:08:04;30.70;52.00
32139;DHT22;18644;48.700;9.210;2022-10-16T13:10:40;30.70;52.00
32139;DHT22;18644;48.700;9.210;2022-10-16T13:13:22;30.60;52.20
32139;DHT22;18644;48.700;9.210;2022-10-16T13:16:04;30.50;52.40
32139;DHT22;18644;48.700;9.210;2022-10-16T13:18:41;30.50;52.70
32139;DHT22;18644;48.700;9.210;2022-10-16T13:21:18;30.50;53.10
32139;DHT22;18644;48.700;9.210;2022-10-16T13:23:52;30.60;53.20
32139;DHT22;18644;48.700;9.210;2022-10-16T13:26:24;30.70;52.90
32139;DHT22;18644;48.700;9.210;2022-10-16T13:28:59;30.80;52.70
32139;DHT22;18644;48.700;9.210;2022-10-16T13:31:26;30.80;52.10
32139;DHT22;18644;48.700;9.210;2022-10-16T13:33:55;30.90;51.90
32139;DHT22;18644;48.700;9.210;2022-10-16T13:36:24;30.90;52.00
32139;DHT22;18644;48.700;9.210;2022-10-16T13:39:06;30.90;52.10
32139;DHT22;18644;48.700;9.210;2022-10-16T13:41:38;30.90;52.00
32139;DHT22;18644;48.700;9.210;2022-10-16T13:44:07;30.80;51.90
32139;DHT22;18644;48.700;9.210;2022-10-16T13:46:39;30.90;52.10
32139;DHT22;18644;48.700;9.210;2022-10-16T13:49:11;30.80;52.00
32139;DHT22;18644;48.700;9.210;2022-10-16T13:51:39;31.00;52.30
32139;DHT22;18644;48.700;9.210;2022-10-16T13:54:07;31.00;52.00
32139;DHT22;18644;48.700;9.210;2022-10-16T13:56:35;31.00;51.60
32139;DHT22;18644;48.700;9.210;2022-10-16T13:59:03;31.00;51.30
32139;DHT22;18644;48.700;9.210;2022-10-16T14:01:32;31.00;51.00
32139;DHT22;18644;48.700;9.210;2022-10-16T14:04:00;30.90;50.70
32139;DHT22;18644;48.700;9.210;2022-10-16T14:06:29;30.90;50.50
32139;DHT22;18644;48.700;9.210;2022-10-16T14:08:59;30.80;49.80
32139;DHT22;18644;48.700;9.210;2022-10-16T14:11:26;30.60;49.00
32139;DHT22;18644;48.700;9.210;2022-10-16T14:13:56;30.40;49.40
32139;DHT22;18644;48.700;9.210;2022-10-16T14:16:24;30.30;49.70
32139;DHT22;18644;48.700;9.210;2022-10-16T14:18:56;30.10;49.90
32139;DHT22;18644;48.700;9.210;2022-10-16T14:21:24;30.00;49.90
32139;DHT22;18644;48.700;9.210;2022-10-16T14:23:52;29.90;50.00
32139;DHT22;18644;48.700;9.210;2022-10-16T14:26:20;29.80;50.20
32139;DHT22;18644;48.700;9.210;2022-10-16T14:28:49;29.70;50.40
32139;DHT22;18644;48.700;9.210;2022-10-16T14:31:28;29.60;50.40
32139;DHT22;18644;48.700;9.210;2022-10-16T14:33:57;29.60;50.30
32139;DHT22;18644;48.700;9.210;2022-10-16T14:36:25;29.50;50.10
32139;DHT22;18644;48.700;9.210;2022-10-16T14:38:56;29.40;50.40
32139;DHT22;18644;48.700;9.210;2022-10-16T14:41:26;29.30;50.60
32139;DHT22;18644;48.700;9.210;2022-10-16T14:43:53;29.30;50.60
32139;DHT22;18644;48.700;9.210;2022-10-16T14:46:22;29.20;50.60
32139;DHT22;18644;48.700;9.210;2022-10-16T14:48:56;29.20;50.60
32139;DHT22;18644;48.700;9.210;2022-10-16T14:51:28;29.10;50.80
32139;DHT22;18644;48.700;9.210;2022-10-16T14:53:55;29.10;51.00
32139;DHT22;18644;48.700;9.210;2022-10-16T14:56:22;29.10;51.10
32139;DHT22;18644;48.700;9.210;2022-10-16T14:58:50;29.00;51.70
32139;DHT22;18644;48.700;9.210;2022-10-16T15:01:19;29.10;51.30
32139;DHT22;18644;48.700;9.210;2022-10-16T15:03:46;29.00;51.10
32139;DHT22;18644;48.700;9.210;2022-10-16T15:06:14;29.00;51.00
32139;DHT22;18644;48.700;9.210;2022-10-16T15:08:42;29.00;50.90
32139;DHT22;18644;48.700;9.210;2022-10-16T15:11:09;29.00;51.10
32139;DHT22;18644;48.700;9.210;2022-10-16T15:13:36;29.00;51.20
32139;DHT22;18644;48.700;9.210;2022-10-16T15:16:03;29.00;51.10
32139;DHT22;18644;48.700;9.210;2022-10-16T15:18:30;29.00;51.30
32139;DHT22;18644;48.700;9.210;2022-10-16T15:20:57;29.00;51.20
32139;DHT22;18644;48.700;9.210;2022-10-16T15:23:25;29.00;51.30
32139;DHT22;18644;48.700;9.210;2022-10-16T15:25:52;28.90;51.40
32139;DHT22;18644;48.700;9.210;2022-10-16T15:28:20;28.90;51.60
32139;DHT22;18644;48.700;9.210;2022-10-16T15:30:48;28.90;51.60
32139;DHT22;18644;48.700;9.210;2022-10-16T15:33:16;28.90;51.40
32139;DHT22;18644;48.700;9.210;2022-10-16T15:35:45;28.90;51.30
32139;DHT22;18644;48.700;9.210;2022-10-16T15:38:13;28.80;51.10
32139;DHT22;18644;48.700;9.210;2022-10-16T15:40:41;28.80;51.00
32139;DHT22;18644;48.700;9.210;2022-10-16T15:43:08;28.80;51.00
32139;DHT22;18644;48.700;9.210;2022-10-16T15:45:35;28.70;50.90
32139;DHT22;18644;48.700;9.210;2022-10-16T15:48:02;28.60;50.70
32139;DHT22;18644;48.700;9.210;2022-10-16T15:50:29;28.50;50.70
32139;DHT22;18644;48.700;9.210;2022-10-16T15:52:56;28.50;50.60